sensor_id;sensor_type;location;lat;lon;timestamp;P1;durP1;ratioP1;P2;durP2;ratioP2
48596;SDS011;34382;43.160;24.148;2023-09-18T00:00:50;11.45;;;6.50;;
48596;SDS011;34382;43.160;24.148;2023-09-18T00:02:22;11.05;;;6.03;;
48596;SDS011;34382;43.160;24.148;2023-09-18T00:03:54;10.90;;;6.50;;
48596;SDS011;34382;43.160;24.148;2023-09-18T00:05:26;12.88;;;6.70;;
48596;SDS011;34382;43.160;24.148;2023-09-18T00:06:59;12.23;;;6.78;;
48596;SDS011;34382;43.160;24.148;2023-09-18T00:08:31;10.57;;;6.10;;
48596;SDS011;34382;43.160;24.148;2023-09-18T00:10:04;10.88;;;6.10;;
48596;SDS011;34382;43.160;24.148;2023-09-18T00:11:36;9.88;;;5.45;;
48596;SDS011;34382;43.160;24.148;2023-09-18T00:13:09;10.07;;;5.85;;
48596;SDS011;34382;43.160;24.148;2023-09-18T00:14:41;12.10;;;6.03;;
48596;SDS011;34382;43.160;24.148;2023-09-18T00:16:13;10.30;;;6.13;;
48596;SDS011;34382;43.160;24.148;2023-09-18T00:17:46;11.07;;;6.10;;
48596;SDS011;34382;43.160;24.148;2023-09-18T00:19:18;12.80;;;6.97;;
48596;SDS011;34382;43.160;24.148;2023-09-18T00:20:50;10.70;;;5.93;;
48596;SDS011;34382;43.160;24.148;2023-09-18T00:22:23;11.02;;;5.75;;
48596;SDS011;34382;43.160;24.148;2023-09-18T00:23:56;10.82;;;6.55;;
48596;SDS011;34382;43.160;24.148;2023-09-18T00:25:29;11.32;;;6.30;;
48596;SDS011;34382;43.160;24.148;2023-09-18T00:27:03;12.48;;;7.00;;
48596;SDS011;34382;43.160;24.148;2023-09-18T00:28:35;11.15;;;6.57;;
48596;SDS011;34382;43.160;24.148;2023-09-18T00:30:07;10.73;;;6.50;;
48596;SDS011;34382;43.160;24.148;2023-09-18T00:31:40;11.18;;;6.70;;
48596;SDS011;34382;43.160;24.148;2023-09-18T00:33:12;13.65;;;6.43;;
48596;SDS011;34382;43.160;24.148;2023-09-18T00:34:45;11.25;;;6.20;;
48596;SDS011;34382;43.160;24.148;2023-09-18T00:36:17;10.77;;;6.05;;
48596;SDS011;34382;43.160;24.148;2023-09-18T00:37:50;11.70;;;6.28;;
48596;SDS011;34382;43.160;24.148;2023-09-18T00:39:22;10.85;;;6.15;;
48596;SDS011;34382;43.160;24.148;2023-09-18T00:40:54;10.68;;;6.32;;
48596;SDS011;34382;43.160;24.148;2023-09-18T00:42:26;10.32;;;6.43;;
48596;SDS011;34382;43.160;24.148;2023-09-18T00:54:38;12.93;;;6.65;;
48596;SDS011;34382;43.160;24.148;2023-09-18T00:56:11;11.02;;;6.85;;
48596;SDS011;34382;43.160;24.148;2023-09-18T00:57:43;11.93;;;6.40;;
48596;SDS011;34382;43.160;24.148;2023-09-18T00:59:16;11.93;;;6.40;;
48596;SDS011;34382;43.160;24.148;2023-09-18T01:00:48;11.30;;;6.32;;
48596;SDS011;34382;43.160;24.148;2023-09-18T01:02:23;11.63;;;7.20;;
48596;SDS011;34382;43.160;24.148;2023-09-18T01:03:56;10.90;;;6.85;;
48596;SDS011;34382;43.160;24.148;2023-09-18T01:05:28;11.00;;;6.72;;
48596;SDS011;34382;43.160;24.148;2023-09-18T01:07:03;12.05;;;7.20;;
48596;SDS011;34382;43.160;24.148;2023-09-18T01:10:15;11.57;;;6.50;;
48596;SDS011;34382;43.160;24.148;2023-09-18T01:11:59;12.23;;;6.93;;
48596;SDS011;34382;43.160;24.148;2023-09-18T01:13:42;11.48;;;6.93;;
48596;SDS011;34382;43.160;24.148;2023-09-18T01:16:08;12.20;;;7.07;;
48596;SDS011;34382;43.160;24.148;2023-09-18T01:17:26;11.13;;;6.88;;
48596;SDS011;34382;43.160;24.148;2023-09-18T01:18:59;11.18;;;6.65;;
48596;SDS011;34382;43.160;24.148;2023-09-18T01:20:31;11.27;;;6.95;;
48596;SDS011;34382;43.160;24.148;2023-09-18T01:22:06;12.00;;;6.60;;
48596;SDS011;34382;43.160;24.148;2023-09-18T01:23:40;12.90;;;7.38;;
48596;SDS011;34382;43.160;24.148;2023-09-18T01:25:12;11.50;;;6.45;;
48596;SDS011;34382;43.160;24.148;2023-09-18T01:26:47;11.18;;;6.75;;
48596;SDS011;34382;43.160;24.148;2023-09-18T01:28:19;11.63;;;6.45;;
48596;SDS011;34382;43.160;24.148;2023-09-18T01:29:51;11.30;;;6.65;;
48596;SDS011;34382;43.160;24.148;2023-09-18T01:32:58;11.43;;;6.82;;
48596;SDS011;34382;43.160;24.148;2023-09-18T01:34:32;11.10;;;6.93;;
48596;SDS011;34382;43.160;24.148;2023-09-18T01:36:07;12.38;;;7.32;;
48596;SDS011;34382;43.160;24.148;2023-09-18T01:37:40;12.02;;;7.38;;
48596;SDS011;34382;43.160;24.148;2023-09-18T01:39:13;12.93;;;6.88;;
48596;SDS011;34382;43.160;24.148;2023-09-18T01:40:46;11.50;;;6.88;;
48596;SDS011;34382;43.160;24.148;2023-09-18T01:42:18;11.30;;;6.43;;
48596;SDS011;34382;43.160;24.148;2023-09-18T01:43:50;12.63;;;6.50;;
48596;SDS011;34382;43.160;24.148;2023-09-18T01:45:22;11.38;;;6.82;;
48596;SDS011;34382;43.160;24.148;2023-09-18T01:46:56;11.43;;;6.47;;
48596;SDS011;34382;43.160;24.148;2023-09-18T01:48:30;11.77;;;6.68;;
48596;SDS011;34382;43.160;24.148;2023-09-18T01:50:03;11.75;;;6.82;;
48596;SDS011;34382;43.160;24.148;2023-09-18T01:51:39;13.63;;;7.07;;
48596;SDS011;34382;43.160;24.148;2023-09-18T01:53:15;14.05;;;6.55;;
48596;SDS011;34382;43.160;24.148;2023-09-18T01:54:47;11.48;;;7.00;;
48596;SDS011;34382;43.160;24.148;2023-09-18T01:56:19;12.35;;;7.05;;
48596;SDS011;34382;43.160;24.148;2023-09-18T01:57:52;12.90;;;7.15;;
48596;SDS011;34382;43.160;24.148;2023-09-18T01:59:24;11.77;;;6.72;;
48596;SDS011;34382;43.160;24.148;2023-09-18T02:01:00;14.63;;;7.22;;
48596;SDS011;34382;43.160;24.148;2023-09-18T02:02:33;14.35;;;7.00;;
48596;SDS011;34382;43.160;24.148;2023-09-18T02:04:25;11.85;;;6.82;;
48596;SDS011;34382;43.160;24.148;2023-09-18T02:06:18;13.90;;;7.20;;
48596;SDS011;34382;43.160;24.148;2023-09-18T02:07:51;13.02;;;6.90;;
48596;SDS011;34382;43.160;24.148;2023-09-18T02:09:24;11.73;;;7.10;;
48596;SDS011;34382;43.160;24.148;2023-09-18T02:10:56;11.52;;;6.40;;
48596;SDS011;34382;43.160;24.148;2023-09-18T02:12:28;11.05;;;6.75;;
48596;SDS011;34382;43.160;24.148;2023-09-18T02:14:00;10.82;;;6.55;;
48596;SDS011;34382;43.160;24.148;2023-09-18T02:15:35;10.68;;;6.60;;
48596;SDS011;34382;43.160;24.148;2023-09-18T02:17:09;14.77;;;7.22;;
48596;SDS011;34382;43.160;24.148;2023-09-18T02:18:41;13.38;;;7.45;;
48596;SDS011;34382;43.160;24.148;2023-09-18T02:20:13;11.98;;;6.75;;
48596;SDS011;34382;43.160;24.148;2023-09-18T02:21:45;12.45;;;6.50;;
48596;SDS011;34382;43.160;24.148;2023-09-18T02:23:18;12.73;;;7.23;;
48596;SDS011;34382;43.160;24.148;2023-09-18T02:24:51;12.25;;;6.95;;
48596;SDS011;34382;43.160;24.148;2023-09-18T02:26:23;13.00;;;7.00;;
48596;SDS011;34382;43.160;24.148;2023-09-18T02:27:56;12.57;;;6.75;;
48596;SDS011;34382;43.160;24.148;2023-09-18T02:29:28;10.52;;;6.65;;
48596;SDS011;34382;43.160;24.148;2023-09-18T02:31:00;11.32;;;6.68;;
48596;SDS011;34382;43.160;24.148;2023-09-18T02:32:33;11.77;;;6.85;;
48596;SDS011;34382;43.160;24.148;2023-09-18T02:34:06;11.52;;;6.22;;
48596;SDS011;34382;43.160;24.148;2023-09-18T02:35:40;11.73;;;6.83;;
48596;SDS011;34382;43.160;24.148;2023-09-18T02:37:12;13.38;;;6.50;;
48596;SDS011;34382;43.160;24.148;2023-09-18T02:41:51;10.90;;;5.85;;
48596;SDS011;34382;43.160;24.148;2023-09-18T02:43:23;10.65;;;6.13;;
48596;SDS011;34382;43.160;24.148;2023-09-18T02:44:56;13.23;;;7.50;;
48596;SDS011;34382;43.160;24.148;2023-09-18T02:46:28;9.90;;;6.13;;
48596;SDS011;34382;43.160;24.148;2023-09-18T02:48:01;10.10;;;5.97;;
48596;SDS011;34382;43.160;24.148;2023-09-18T02:49:33;11.57;;;6.15;;
48596;SDS011;34382;43.160;24.148;2023-09-18T02:51:05;12.90;;;6.43;;
48596;SDS011;34382;43.160;24.148;2023-09-18T02:54:16;12.18;;;6.70;;
48596;SDS011;34382;43.160;24.148;2023-09-18T02:55:52;10.17;;;6.20;;
48596;SDS011;34382;43.160;24.148;2023-09-18T02:57:26;11.20;;;6.43;;
48596;SDS011;34382;43.160;24.148;2023-09-18T02:58:58;10.68;;;6.28;;
48596;SDS011;34382;43.160;24.148;2023-09-18T03:00:30;11.40;;;6.28;;
48596;SDS011;34382;43.160;24.148;2023-09-18T03:02:14;12.63;;;6.25;;
48596;SDS011;34382;43.160;24.148;2023-09-18T03:03:46;11.40;;;6.78;;
48596;SDS011;34382;43.160;24.148;2023-09-18T03:05:18;11.70;;;5.88;;
48596;SDS011;34382;43.160;24.148;2023-09-18T03:06:51;10.98;;;7.00;;
48596;SDS011;34382;43.160;24.148;2023-09-18T03:08:23;10.38;;;6.10;;
48596;SDS011;34382;43.160;24.148;2023-09-18T03:09:55;13.07;;;6.88;;
48596;SDS011;34382;43.160;24.148;2023-09-18T03:11:27;11.07;;;6.32;;
48596;SDS011;34382;43.160;24.148;2023-09-18T03:13:01;11.38;;;6.20;;
48596;SDS011;34382;43.160;24.148;2023-09-18T03:14:34;12.35;;;6.80;;
48596;SDS011;34382;43.160;24.148;2023-09-18T03:16:06;11.40;;;6.32;;
48596;SDS011;34382;43.160;24.148;2023-09-18T03:17:38;10.93;;;6.30;;
48596;SDS011;34382;43.160;24.148;2023-09-18T03:19:12;11.82;;;6.65;;
48596;SDS011;34382;43.160;24.148;2023-09-18T03:20:45;10.05;;;5.90;;
48596;SDS011;34382;43.160;24.148;2023-09-18T03:22:17;11.55;;;6.28;;
48596;SDS011;34382;43.160;24.148;2023-09-18T03:23:49;11.95;;;6.75;;
48596;SDS011;34382;43.160;24.148;2023-09-18T03:25:22;12.57;;;7.25;;
48596;SDS011;34382;43.160;24.148;2023-09-18T03:26:54;11.32;;;6.55;;
48596;SDS011;34382;43.160;24.148;2023-09-18T03:30:01;11.68;;;6.57;;
48596;SDS011;34382;43.160;24.148;2023-09-18T03:31:34;11.85;;;6.57;;
48596;SDS011;34382;43.160;24.148;2023-09-18T03:33:06;10.88;;;6.57;;
48596;SDS011;34382;43.160;24.148;2023-09-18T03:34:38;11.88;;;6.93;;
48596;SDS011;34382;43.160;24.148;2023-09-18T03:36:13;12.55;;;6.95;;
48596;SDS011;34382;43.160;24.148;2023-09-18T03:37:47;13.02;;;6.75;;
48596;SDS011;34382;43.160;24.148;2023-09-18T03:40:52;12.25;;;7.05;;
48596;SDS011;34382;43.160;24.148;2023-09-18T03:42:24;11.02;;;6.72;;
48596;SDS011;34382;43.160;24.148;2023-09-18T03:43:57;11.32;;;6.20;;
48596;SDS011;34382;43.160;24.148;2023-09-18T03:45:31;12.10;;;6.33;;
48596;SDS011;34382;43.160;24.148;2023-09-18T03:48:35;11.48;;;6.20;;
48596;SDS011;34382;43.160;24.148;2023-09-18T03:50:11;11.32;;;6.28;;
48596;SDS011;34382;43.160;24.148;2023-09-18T03:51:43;11.52;;;6.28;;
48596;SDS011;34382;43.160;24.148;2023-09-18T03:53:19;10.77;;;6.47;;
48596;SDS011;34382;43.160;24.148;2023-09-18T03:54:53;11.52;;;6.20;;
48596;SDS011;34382;43.160;24.148;2023-09-18T03:56:25;11.38;;;6.70;;
48596;SDS011;34382;43.160;24.148;2023-09-18T03:57:57;10.85;;;6.47;;
48596;SDS011;34382;43.160;24.148;2023-09-18T03:59:29;10.93;;;6.55;;
48596;SDS011;34382;43.160;24.148;2023-09-18T04:01:01;12.30;;;6.50;;
48596;SDS011;34382;43.160;24.148;2023-09-18T04:02:34;13.30;;;6.60;;
48596;SDS011;34382;43.160;24.148;2023-09-18T04:04:06;11.60;;;6.77;;
48596;SDS011;34382;43.160;24.148;2023-09-18T04:05:39;11.38;;;6.45;;
48596;SDS011;34382;43.160;24.148;2023-09-18T04:07:11;10.75;;;6.22;;
48596;SDS011;34382;43.160;24.148;2023-09-18T04:08:48;11.73;;;6.10;;
48596;SDS011;34382;43.160;24.148;2023-09-18T04:10:20;10.73;;;6.40;;
48596;SDS011;34382;43.160;24.148;2023-09-18T04:11:55;12.45;;;6.82;;
48596;SDS011;34382;43.160;24.148;2023-09-18T04:13:28;10.97;;;6.60;;
48596;SDS011;34382;43.160;24.148;2023-09-18T04:15:00;11.13;;;7.13;;
48596;SDS011;34382;43.160;24.148;2023-09-18T04:16:32;11.57;;;6.30;;
48596;SDS011;34382;43.160;24.148;2023-09-18T04:18:08;12.13;;;7.22;;
48596;SDS011;34382;43.160;24.148;2023-09-18T04:19:40;10.77;;;6.53;;
48596;SDS011;34382;43.160;24.148;2023-09-18T04:21:12;13.52;;;6.13;;
48596;SDS011;34382;43.160;24.148;2023-09-18T04:22:45;10.55;;;6.50;;
48596;SDS011;34382;43.160;24.148;2023-09-18T04:24:22;10.82;;;6.57;;
48596;SDS011;34382;43.160;24.148;2023-09-18T04:25:54;13.45;;;6.53;;
48596;SDS011;34382;43.160;24.148;2023-09-18T04:27:27;11.60;;;5.97;;
48596;SDS011;34382;43.160;24.148;2023-09-18T04:28:59;11.23;;;6.40;;
48596;SDS011;34382;43.160;24.148;2023-09-18T04:32:06;12.27;;;6.40;;
48596;SDS011;34382;43.160;24.148;2023-09-18T04:33:38;10.90;;;6.00;;
48596;SDS011;34382;43.160;24.148;2023-09-18T04:35:11;11.32;;;6.20;;
48596;SDS011;34382;43.160;24.148;2023-09-18T04:36:45;11.52;;;7.05;;
48596;SDS011;34382;43.160;24.148;2023-09-18T04:57:12;13.00;;;6.68;;
48596;SDS011;34382;43.160;24.148;2023-09-18T04:58:44;12.15;;;6.45;;
48596;SDS011;34382;43.160;24.148;2023-09-18T05:00:16;12.32;;;7.03;;
48596;SDS011;34382;43.160;24.148;2023-09-18T05:01:49;10.93;;;6.32;;
48596;SDS011;34382;43.160;24.148;2023-09-18T05:03:21;14.38;;;7.00;;
48596;SDS011;34382;43.160;24.148;2023-09-18T05:04:55;11.85;;;6.72;;
48596;SDS011;34382;43.160;24.148;2023-09-18T05:06:28;12.88;;;7.25;;
48596;SDS011;34382;43.160;24.148;2023-09-18T05:08:05;12.05;;;7.00;;
48596;SDS011;34382;43.160;24.148;2023-09-18T05:09:39;12.70;;;7.38;;
48596;SDS011;34382;43.160;24.148;2023-09-18T05:11:12;12.68;;;6.88;;
48596;SDS011;34382;43.160;24.148;2023-09-18T05:12:45;11.98;;;7.30;;
48596;SDS011;34382;43.160;24.148;2023-09-18T05:14:17;13.00;;;7.30;;
48596;SDS011;34382;43.160;24.148;2023-09-18T05:15:49;12.02;;;7.60;;
48596;SDS011;34382;43.160;24.148;2023-09-18T05:17:27;12.82;;;7.50;;
48596;SDS011;34382;43.160;24.148;2023-09-18T05:19:15;14.15;;;7.45;;
48596;SDS011;34382;43.160;24.148;2023-09-18T05:20:47;11.57;;;6.60;;
48596;SDS011;34382;43.160;24.148;2023-09-18T05:22:20;11.85;;;7.47;;
48596;SDS011;34382;43.160;24.148;2023-09-18T05:23:52;13.43;;;7.30;;
48596;SDS011;34382;43.160;24.148;2023-09-18T05:25:26;11.40;;;7.20;;
48596;SDS011;34382;43.160;24.148;2023-09-18T05:26:59;11.73;;;7.03;;
48596;SDS011;34382;43.160;24.148;2023-09-18T05:28:31;10.82;;;6.88;;
48596;SDS011;34382;43.160;24.148;2023-09-18T05:30:04;14.82;;;7.63;;
48596;SDS011;34382;43.160;24.148;2023-09-18T05:31:37;13.48;;;8.50;;
48596;SDS011;34382;43.160;24.148;2023-09-18T05:33:09;14.50;;;7.70;;
48596;SDS011;34382;43.160;24.148;2023-09-18T05:34:41;12.48;;;7.38;;
48596;SDS011;34382;43.160;24.148;2023-09-18T05:36:13;14.48;;;7.72;;
48596;SDS011;34382;43.160;24.148;2023-09-18T05:37:46;13.77;;;7.47;;
48596;SDS011;34382;43.160;24.148;2023-09-18T05:39:18;12.45;;;7.32;;
48596;SDS011;34382;43.160;24.148;2023-09-18T05:40:51;12.18;;;6.85;;
48596;SDS011;34382;43.160;24.148;2023-09-18T05:42:24;11.87;;;7.43;;
48596;SDS011;34382;43.160;24.148;2023-09-18T05:43:56;16.63;;;7.90;;
48596;SDS011;34382;43.160;24.148;2023-09-18T05:45:28;13.93;;;7.63;;
48596;SDS011;34382;43.160;24.148;2023-09-18T05:47:02;12.32;;;7.10;;
48596;SDS011;34382;43.160;24.148;2023-09-18T05:50:10;14.18;;;7.32;;
48596;SDS011;34382;43.160;24.148;2023-09-18T05:51:48;15.23;;;7.32;;
48596;SDS011;34382;43.160;24.148;2023-09-18T05:53:20;12.85;;;7.15;;
48596;SDS011;34382;43.160;24.148;2023-09-18T05:54:52;14.25;;;6.90;;
48596;SDS011;34382;43.160;24.148;2023-09-18T05:56:27;12.05;;;7.50;;
48596;SDS011;34382;43.160;24.148;2023-09-18T05:58:00;12.10;;;7.50;;
48596;SDS011;34382;43.160;24.148;2023-09-18T05:59:34;12.10;;;7.20;;
48596;SDS011;34382;43.160;24.148;2023-09-18T06:01:06;12.80;;;7.93;;
48596;SDS011;34382;43.160;24.148;2023-09-18T06:02:40;16.08;;;7.55;;
48596;SDS011;34382;43.160;24.148;2023-09-18T06:05:45;12.73;;;7.40;;
48596;SDS011;34382;43.160;24.148;2023-09-18T06:07:17;12.97;;;7.70;;
48596;SDS011;34382;43.160;24.148;2023-09-18T06:08:49;11.48;;;6.88;;
48596;SDS011;34382;43.160;24.148;2023-09-18T06:10:22;15.15;;;7.95;;
48596;SDS011;34382;43.160;24.148;2023-09-18T06:11:54;13.90;;;7.35;;
48596;SDS011;34382;43.160;24.148;2023-09-18T06:13:27;12.32;;;7.30;;
48596;SDS011;34382;43.160;24.148;2023-09-18T06:14:59;14.20;;;7.20;;
48596;SDS011;34382;43.160;24.148;2023-09-18T06:16:34;11.57;;;7.20;;
48596;SDS011;34382;43.160;24.148;2023-09-18T06:18:07;13.13;;;7.43;;
48596;SDS011;34382;43.160;24.148;2023-09-18T06:19:39;12.77;;;7.33;;
48596;SDS011;34382;43.160;24.148;2023-09-18T06:21:11;13.57;;;7.50;;
48596;SDS011;34382;43.160;24.148;2023-09-18T06:22:44;15.13;;;7.28;;
48596;SDS011;34382;43.160;24.148;2023-09-18T06:24:16;12.97;;;6.90;;
48596;SDS011;34382;43.160;24.148;2023-09-18T06:25:48;12.45;;;7.13;;
48596;SDS011;34382;43.160;24.148;2023-09-18T06:27:27;13.70;;;6.55;;
48596;SDS011;34382;43.160;24.148;2023-09-18T06:28:59;14.00;;;7.25;;
48596;SDS011;34382;43.160;24.148;2023-09-18T06:30:32;12.68;;;7.30;;
48596;SDS011;34382;43.160;24.148;2023-09-18T06:32:05;12.13;;;6.63;;
48596;SDS011;34382;43.160;24.148;2023-09-18T06:33:38;12.07;;;6.32;;
48596;SDS011;34382;43.160;24.148;2023-09-18T06:35:10;13.15;;;7.25;;
48596;SDS011;34382;43.160;24.148;2023-09-18T06:36:42;14.15;;;7.45;;
48596;SDS011;34382;43.160;24.148;2023-09-18T06:38:15;11.00;;;6.65;;
48596;SDS011;34382;43.160;24.148;2023-09-18T06:39:47;11.43;;;6.63;;
48596;SDS011;34382;43.160;24.148;2023-09-18T06:41:22;13.07;;;6.85;;
48596;SDS011;34382;43.160;24.148;2023-09-18T06:43:00;12.65;;;7.03;;
48596;SDS011;34382;43.160;24.148;2023-09-18T06:44:33;13.70;;;7.03;;
48596;SDS011;34382;43.160;24.148;2023-09-18T06:46:08;14.20;;;8.35;;
48596;SDS011;34382;43.160;24.148;2023-09-18T06:47:41;14.63;;;7.63;;
48596;SDS011;34382;43.160;24.148;2023-09-18T06:49:13;13.18;;;7.38;;
48596;SDS011;34382;43.160;24.148;2023-09-18T06:50:45;13.05;;;7.45;;
48596;SDS011;34382;43.160;24.148;2023-09-18T06:52:18;12.13;;;7.15;;
48596;SDS011;34382;43.160;24.148;2023-09-18T06:53:51;11.60;;;7.25;;
48596;SDS011;34382;43.160;24.148;2023-09-18T06:55:23;11.80;;;6.93;;
48596;SDS011;34382;43.160;24.148;2023-09-18T06:56:55;13.20;;;7.17;;
48596;SDS011;34382;43.160;24.148;2023-09-18T06:58:28;12.30;;;6.57;;
48596;SDS011;34382;43.160;24.148;2023-09-18T07:00:00;11.05;;;6.68;;
48596;SDS011;34382;43.160;24.148;2023-09-18T07:01:33;11.73;;;6.78;;
48596;SDS011;34382;43.160;24.148;2023-09-18T07:03:05;11.68;;;6.50;;
48596;SDS011;34382;43.160;24.148;2023-09-18T07:04:38;14.25;;;8.10;;
48596;SDS011;34382;43.160;24.148;2023-09-18T07:06:17;15.02;;;8.77;;
48596;SDS011;34382;43.160;24.148;2023-09-18T07:07:52;12.32;;;7.32;;
48596;SDS011;34382;43.160;24.148;2023-09-18T07:09:25;14.35;;;8.35;;
48596;SDS011;34382;43.160;24.148;2023-09-18T07:30:42;15.45;;;9.57;;
48596;SDS011;34382;43.160;24.148;2023-09-18T07:32:15;13.13;;;8.30;;
48596;SDS011;34382;43.160;24.148;2023-09-18T07:34:06;14.55;;;8.73;;
48596;SDS011;34382;43.160;24.148;2023-09-18T07:35:41;12.95;;;7.40;;
48596;SDS011;34382;43.160;24.148;2023-09-18T07:37:17;13.98;;;8.02;;
48596;SDS011;34382;43.160;24.148;2023-09-18T07:38:52;12.32;;;8.07;;
48596;SDS011;34382;43.160;24.148;2023-09-18T07:40:26;14.05;;;8.60;;
48596;SDS011;34382;43.160;24.148;2023-09-18T07:41:58;15.00;;;8.48;;
48596;SDS011;34382;43.160;24.148;2023-09-18T07:43:30;15.40;;;8.20;;
48596;SDS011;34382;43.160;24.148;2023-09-18T07:45:03;12.30;;;7.15;;
48596;SDS011;34382;43.160;24.148;2023-09-18T07:46:35;12.73;;;7.65;;
48596;SDS011;34382;43.160;24.148;2023-09-18T07:48:08;11.88;;;7.20;;
48596;SDS011;34382;43.160;24.148;2023-09-18T07:49:40;12.40;;;7.25;;
48596;SDS011;34382;43.160;24.148;2023-09-18T07:51:12;12.55;;;6.85;;
48596;SDS011;34382;43.160;24.148;2023-09-18T07:52:45;13.43;;;7.82;;
48596;SDS011;34382;43.160;24.148;2023-09-18T07:54:17;14.43;;;7.68;;
48596;SDS011;34382;43.160;24.148;2023-09-18T07:55:55;12.30;;;6.10;;
48596;SDS011;34382;43.160;24.148;2023-09-18T07:57:29;13.43;;;6.93;;
48596;SDS011;34382;43.160;24.148;2023-09-18T07:59:03;12.75;;;6.68;;
48596;SDS011;34382;43.160;24.148;2023-09-18T08:02:08;11.02;;;6.40;;
48596;SDS011;34382;43.160;24.148;2023-09-18T08:03:41;11.95;;;6.57;;
48596;SDS011;34382;43.160;24.148;2023-09-18T08:05:14;10.60;;;7.00;;
48596;SDS011;34382;43.160;24.148;2023-09-18T08:06:46;11.07;;;6.93;;
48596;SDS011;34382;43.160;24.148;2023-09-18T08:08:19;13.65;;;7.05;;
48596;SDS011;34382;43.160;24.148;2023-09-18T08:09:52;11.80;;;7.45;;
48596;SDS011;34382;43.160;24.148;2023-09-18T08:11:24;11.50;;;6.85;;
48596;SDS011;34382;43.160;24.148;2023-09-18T08:12:56;15.38;;;6.90;;
48596;SDS011;34382;43.160;24.148;2023-09-18T08:14:28;11.73;;;7.30;;
48596;SDS011;34382;43.160;24.148;2023-09-18T08:16:01;11.70;;;7.35;;
48596;SDS011;34382;43.160;24.148;2023-09-18T08:19:06;12.95;;;6.70;;
48596;SDS011;34382;43.160;24.148;2023-09-18T08:20:42;11.95;;;7.07;;
48596;SDS011;34382;43.160;24.148;2023-09-18T08:22:15;12.68;;;6.93;;
48596;SDS011;34382;43.160;24.148;2023-09-18T08:36:16;15.13;;;6.95;;
48596;SDS011;34382;43.160;24.148;2023-09-18T08:37:48;13.20;;;7.23;;
48596;SDS011;34382;43.160;24.148;2023-09-18T08:39:21;12.73;;;7.30;;
48596;SDS011;34382;43.160;24.148;2023-09-18T08:40:53;10.27;;;6.25;;
48596;SDS011;34382;43.160;24.148;2023-09-18T08:44:00;13.00;;;6.35;;
48596;SDS011;34382;43.160;24.148;2023-09-18T08:45:40;11.88;;;7.32;;
48596;SDS011;34382;43.160;24.148;2023-09-18T08:47:17;13.52;;;7.20;;
48596;SDS011;34382;43.160;24.148;2023-09-18T08:48:50;11.27;;;6.30;;
48596;SDS011;34382;43.160;24.148;2023-09-18T08:51:59;12.07;;;6.65;;
48596;SDS011;34382;43.160;24.148;2023-09-18T08:53:33;12.23;;;7.13;;
48596;SDS011;34382;43.160;24.148;2023-09-18T08:55:06;13.23;;;6.53;;
48596;SDS011;34382;43.160;24.148;2023-09-18T08:56:41;12.15;;;6.82;;
48596;SDS011;34382;43.160;24.148;2023-09-18T08:58:13;10.75;;;6.30;;
48596;SDS011;34382;43.160;24.148;2023-09-18T08:59:47;11.25;;;6.40;;
48596;SDS011;34382;43.160;24.148;2023-09-18T09:01:20;12.82;;;7.60;;
48596;SDS011;34382;43.160;24.148;2023-09-18T09:02:53;10.98;;;7.03;;
48596;SDS011;34382;43.160;24.148;2023-09-18T09:04:26;14.60;;;7.32;;
48596;SDS011;34382;43.160;24.148;2023-09-18T09:05:58;10.93;;;6.80;;
48596;SDS011;34382;43.160;24.148;2023-09-18T09:07:32;13.52;;;7.57;;
48596;SDS011;34382;43.160;24.148;2023-09-18T09:09:05;12.57;;;6.90;;
48596;SDS011;34382;43.160;24.148;2023-09-18T09:10:37;12.02;;;6.90;;
48596;SDS011;34382;43.160;24.148;2023-09-18T09:12:10;12.10;;;7.07;;
48596;SDS011;34382;43.160;24.148;2023-09-18T09:13:42;13.02;;;6.88;;
48596;SDS011;34382;43.160;24.148;2023-09-18T09:15:17;12.75;;;7.10;;
48596;SDS011;34382;43.160;24.148;2023-09-18T09:16:50;10.88;;;6.50;;
48596;SDS011;34382;43.160;24.148;2023-09-18T09:18:23;11.55;;;6.80;;
48596;SDS011;34382;43.160;24.148;2023-09-18T09:20:07;11.60;;;7.20;;
48596;SDS011;34382;43.160;24.148;2023-09-18T09:21:43;13.75;;;6.88;;
48596;SDS011;34382;43.160;24.148;2023-09-18T09:23:16;10.35;;;6.50;;
48596;SDS011;34382;43.160;24.148;2023-09-18T09:24:48;12.73;;;6.72;;
48596;SDS011;34382;43.160;24.148;2023-09-18T09:26:21;11.50;;;6.30;;
48596;SDS011;34382;43.160;24.148;2023-09-18T09:27:57;12.13;;;6.95;;
48596;SDS011;34382;43.160;24.148;2023-09-18T09:29:30;9.98;;;6.05;;
48596;SDS011;34382;43.160;24.148;2023-09-18T09:31:03;10.90;;;6.25;;
48596;SDS011;34382;43.160;24.148;2023-09-18T09:32:35;10.93;;;6.78;;
48596;SDS011;34382;43.160;24.148;2023-09-18T09:34:08;10.52;;;5.63;;
48596;SDS011;34382;43.160;24.148;2023-09-18T09:35:40;13.63;;;6.55;;
48596;SDS011;34382;43.160;24.148;2023-09-18T09:37:13;12.73;;;6.70;;
48596;SDS011;34382;43.160;24.148;2023-09-18T09:38:45;11.67;;;6.10;;
48596;SDS011;34382;43.160;24.148;2023-09-18T09:40:18;11.07;;;5.63;;
48596;SDS011;34382;43.160;24.148;2023-09-18T09:41:51;12.93;;;6.07;;
48596;SDS011;34382;43.160;24.148;2023-09-18T09:43:24;10.30;;;5.65;;
48596;SDS011;34382;43.160;24.148;2023-09-18T09:45:04;11.60;;;6.07;;
48596;SDS011;34382;43.160;24.148;2023-09-18T09:46:37;13.45;;;6.53;;
48596;SDS011;34382;43.160;24.148;2023-09-18T09:48:20;10.02;;;5.68;;
48596;SDS011;34382;43.160;24.148;2023-09-18T09:49:53;11.15;;;5.53;;
48596;SDS011;34382;43.160;24.148;2023-09-18T09:52:58;12.73;;;6.10;;
48596;SDS011;34382;43.160;24.148;2023-09-18T09:54:33;10.65;;;5.53;;
48596;SDS011;34382;43.160;24.148;2023-09-18T09:56:08;12.55;;;6.38;;
48596;SDS011;34382;43.160;24.148;2023-09-18T09:57:47;10.35;;;6.00;;
48596;SDS011;34382;43.160;24.148;2023-09-18T09:59:20;11.20;;;6.30;;
48596;SDS011;34382;43.160;24.148;2023-09-18T10:00:52;9.45;;;5.38;;
48596;SDS011;34382;43.160;24.148;2023-09-18T10:02:27;12.38;;;5.80;;
48596;SDS011;34382;43.160;24.148;2023-09-18T10:04:10;12.45;;;6.10;;
48596;SDS011;34382;43.160;24.148;2023-09-18T10:05:50;9.90;;;5.75;;
48596;SDS011;34382;43.160;24.148;2023-09-18T10:07:25;9.77;;;5.68;;
48596;SDS011;34382;43.160;24.148;2023-09-18T10:08:57;9.45;;;5.75;;
48596;SDS011;34382;43.160;24.148;2023-09-18T10:10:32;11.82;;;5.35;;
48596;SDS011;34382;43.160;24.148;2023-09-18T10:12:10;10.63;;;5.63;;
48596;SDS011;34382;43.160;24.148;2023-09-18T10:13:57;9.55;;;5.78;;
48596;SDS011;34382;43.160;24.148;2023-09-18T10:15:32;9.10;;;5.43;;
48596;SDS011;34382;43.160;24.148;2023-09-18T10:17:19;9.02;;;5.32;;
48596;SDS011;34382;43.160;24.148;2023-09-18T10:18:55;9.43;;;5.45;;
48596;SDS011;34382;43.160;24.148;2023-09-18T10:41:31;11.00;;;4.70;;
48596;SDS011;34382;43.160;24.148;2023-09-18T10:43:03;10.32;;;4.78;;
48596;SDS011;34382;43.160;24.148;2023-09-18T10:46:11;8.80;;;4.45;;
48596;SDS011;34382;43.160;24.148;2023-09-18T10:47:45;9.30;;;5.00;;
48596;SDS011;34382;43.160;24.148;2023-09-18T10:49:19;8.85;;;5.03;;
48596;SDS011;34382;43.160;24.148;2023-09-18T10:52:24;12.73;;;4.85;;
48596;SDS011;34382;43.160;24.148;2023-09-18T10:53:56;8.20;;;4.75;;
48596;SDS011;34382;43.160;24.148;2023-09-18T10:57:01;9.85;;;5.20;;
48596;SDS011;34382;43.160;24.148;2023-09-18T10:58:33;8.88;;;4.60;;
48596;SDS011;34382;43.160;24.148;2023-09-18T11:00:07;9.23;;;4.07;;
48596;SDS011;34382;43.160;24.148;2023-09-18T11:01:45;7.82;;;3.67;;